CYQF 250800Z 16010KT 4SM BR OVC004 M00/M01 A3019 RMK ST8 SLP266